sensor_id;sensor_type;location;lat;lon;timestamp;temperature;humidity
16643;DHT22;8435;52.184;5.406;2023-05-10T00:00:25;16.60;99.90
16643;DHT22;8435;52.184;5.406;2023-05-10T00:02:52;16.60;99.90
16643;DHT22;8435;52.184;5.406;2023-05-10T00:05:21;16.60;99.90
16643;DHT22;8435;52.184;5.406;2023-05-10T00:07:48;16.60;99.90
16643;DHT22;8435;52.184;5.406;2023-05-10T00:10:15;16.50;99.90
16643;DHT22;8435;52.184;5.406;2023-05-10T00:12:42;16.50;99.90
16643;DHT22;8435;52.184;5.406;2023-05-10T00:15:13;16.50;99.90
16643;DHT22;8435;52.184;5.406;2023-05-10T00:17:42;16.50;99.90
16643;DHT22;8435;52.184;5.406;2023-05-10T00:20:10;16.50;99.90
16643;DHT22;8435;52.184;5.406;2023-05-10T00:22:37;16.50;99.90
16643;DHT22;8435;52.184;5.406;2023-05-10T00:25:05;16.50;99.90
16643;DHT22;8435;52.184;5.406;2023-05-10T00:27:32;16.40;99.90
16643;DHT22;8435;52.184;5.406;2023-05-10T00:30:00;16.50;99.90
16643;DHT22;8435;52.184;5.406;2023-05-10T00:32:28;16.40;99.90
16643;DHT22;8435;52.184;5.406;2023-05-10T00:34:56;16.40;99.90
16643;DHT22;8435;52.184;5.406;2023-05-10T00:37:23;16.40;99.90
16643;DHT22;8435;52.184;5.406;2023-05-10T00:39:50;16.40;99.90
16643;DHT22;8435;52.184;5.406;2023-05-10T00:42:16;16.40;99.90
16643;DHT22;8435;52.184;5.406;2023-05-10T00:44:43;16.40;99.90
16643;DHT22;8435;52.184;5.406;2023-05-10T00:47:10;16.40;99.90
16643;DHT22;8435;52.184;5.406;2023-05-10T00:49:38;16.40;99.90
16643;DHT22;8435;52.184;5.406;2023-05-10T00:52:06;16.40;99.90
16643;DHT22;8435;52.184;5.406;2023-05-10T00:54:33;16.30;99.90
16643;DHT22;8435;52.184;5.406;2023-05-10T00:57:00;16.30;99.90
16643;DHT22;8435;52.184;5.406;2023-05-10T00:59:29;16.30;99.90
16643;DHT22;8435;52.184;5.406;2023-05-10T01:01:57;16.30;99.90
16643;DHT22;8435;52.184;5.406;2023-05-10T01:04:30;16.30;99.90
16643;DHT22;8435;52.184;5.406;2023-05-10T01:06:58;16.30;99.90
16643;DHT22;8435;52.184;5.406;2023-05-10T01:09:25;16.30;99.90
16643;DHT22;8435;52.184;5.406;2023-05-10T01:11:53;16.30;99.90
16643;DHT22;8435;52.184;5.406;2023-05-10T01:14:20;16.30;99.90
16643;DHT22;8435;52.184;5.406;2023-05-10T01:16:49;16.30;99.90
16643;DHT22;8435;52.184;5.406;2023-05-10T01:19:19;16.30;99.90
16643;DHT22;8435;52.184;5.406;2023-05-10T01:21:56;16.30;99.90
16643;DHT22;8435;52.184;5.406;2023-05-10T01:24:40;16.30;99.90
16643;DHT22;8435;52.184;5.406;2023-05-10T01:27:25;16.30;99.90
16643;DHT22;8435;52.184;5.406;2023-05-10T01:30:30;16.30;99.90
16643;DHT22;8435;52.184;5.406;2023-05-10T01:33:10;16.30;99.90
16643;DHT22;8435;52.184;5.406;2023-05-10T01:35:45;16.30;99.90
16643;DHT22;8435;52.184;5.406;2023-05-10T01:38:18;16.30;99.90
16643;DHT22;8435;52.184;5.406;2023-05-10T01:40:54;16.30;99.90
16643;DHT22;8435;52.184;5.406;2023-05-10T01:43:31;16.30;99.90
16643;DHT22;8435;52.184;5.406;2023-05-10T01:46:02;16.30;99.90
16643;DHT22;8435;52.184;5.406;2023-05-10T01:48:37;16.30;99.90
16643;DHT22;8435;52.184;5.406;2023-05-10T01:51:06;16.30;99.90
16643;DHT22;8435;52.184;5.406;2023-05-10T01:53:35;16.30;99.90
16643;DHT22;8435;52.184;5.406;2023-05-10T01:56:04;16.30;99.90
16643;DHT22;8435;52.184;5.406;2023-05-10T01:58:33;16.30;99.90
16643;DHT22;8435;52.184;5.406;2023-05-10T02:01:06;16.30;99.90
16643;DHT22;8435;52.184;5.406;2023-05-10T02:03:36;16.30;99.90
16643;DHT22;8435;52.184;5.406;2023-05-10T02:06:05;16.30;99.90
16643;DHT22;8435;52.184;5.406;2023-05-10T02:08:41;16.30;99.90
16643;DHT22;8435;52.184;5.406;2023-05-10T02:11:12;16.30;99.90
16643;DHT22;8435;52.184;5.406;2023-05-10T02:13:39;16.30;99.90
16643;DHT22;8435;52.184;5.406;2023-05-10T02:16:08;16.30;99.90
16643;DHT22;8435;52.184;5.406;2023-05-10T02:18:37;16.20;99.90
16643;DHT22;8435;52.184;5.406;2023-05-10T02:21:06;16.20;99.90
16643;DHT22;8435;52.184;5.406;2023-05-10T02:23:34;16.20;99.90
16643;DHT22;8435;52.184;5.406;2023-05-10T02:26:02;16.20;99.90
16643;DHT22;8435;52.184;5.406;2023-05-10T02:28:32;16.20;99.90
16643;DHT22;8435;52.184;5.406;2023-05-10T02:31:00;16.20;99.90
16643;DHT22;8435;52.184;5.406;2023-05-10T02:33:28;16.20;99.90
16643;DHT22;8435;52.184;5.406;2023-05-10T02:35:57;16.20;99.90
16643;DHT22;8435;52.184;5.406;2023-05-10T02:38:24;16.20;99.90
16643;DHT22;8435;52.184;5.406;2023-05-10T02:40:52;16.20;99.90
16643;DHT22;8435;52.184;5.406;2023-05-10T02:43:23;16.20;99.90
16643;DHT22;8435;52.184;5.406;2023-05-10T02:45:50;16.10;99.90
16643;DHT22;8435;52.184;5.406;2023-05-10T02:48:19;16.10;99.90
16643;DHT22;8435;52.184;5.406;2023-05-10T02:50:47;16.10;99.90
16643;DHT22;8435;52.184;5.406;2023-05-10T02:53:23;16.10;99.90
16643;DHT22;8435;52.184;5.406;2023-05-10T02:55:59;16.10;99.90
16643;DHT22;8435;52.184;5.406;2023-05-10T02:58:29;16.10;99.90
16643;DHT22;8435;52.184;5.406;2023-05-10T03:00:56;16.10;99.90
16643;DHT22;8435;52.184;5.406;2023-05-10T03:03:23;16.20;99.90
16643;DHT22;8435;52.184;5.406;2023-05-10T03:05:50;16.10;99.90
16643;DHT22;8435;52.184;5.406;2023-05-10T03:08:20;16.20;99.90
16643;DHT22;8435;52.184;5.406;2023-05-10T03:10:56;16.10;99.90
16643;DHT22;8435;52.184;5.406;2023-05-10T03:13:33;16.10;99.90
16643;DHT22;8435;52.184;5.406;2023-05-10T03:16:07;16.10;99.90
16643;DHT22;8435;52.184;5.406;2023-05-10T03:18:42;16.10;99.90
16643;DHT22;8435;52.184;5.406;2023-05-10T03:21:11;16.10;99.90
16643;DHT22;8435;52.184;5.406;2023-05-10T03:23:44;16.10;99.90
16643;DHT22;8435;52.184;5.406;2023-05-10T03:26:17;16.00;99.90
16643;DHT22;8435;52.184;5.406;2023-05-10T03:28:44;16.00;99.90
16643;DHT22;8435;52.184;5.406;2023-05-10T03:31:12;16.00;99.90
16643;DHT22;8435;52.184;5.406;2023-05-10T03:33:46;16.00;99.90
16643;DHT22;8435;52.184;5.406;2023-05-10T03:36:13;16.00;99.90
16643;DHT22;8435;52.184;5.406;2023-05-10T03:38:41;15.90;99.90
16643;DHT22;8435;52.184;5.406;2023-05-10T03:41:08;15.90;99.90
16643;DHT22;8435;52.184;5.406;2023-05-10T03:43:35;15.90;99.90
16643;DHT22;8435;52.184;5.406;2023-05-10T03:46:02;15.90;99.90
16643;DHT22;8435;52.184;5.406;2023-05-10T03:48:29;15.90;99.90
16643;DHT22;8435;52.184;5.406;2023-05-10T03:50:55;15.80;99.90
16643;DHT22;8435;52.184;5.406;2023-05-10T03:53:25;15.80;99.90
16643;DHT22;8435;52.184;5.406;2023-05-10T03:55:55;15.90;99.90
16643;DHT22;8435;52.184;5.406;2023-05-10T03:58:21;15.80;99.90
16643;DHT22;8435;52.184;5.406;2023-05-10T04:00:50;15.80;99.90
16643;DHT22;8435;52.184;5.406;2023-05-10T04:03:17;15.80;99.90
16643;DHT22;8435;52.184;5.406;2023-05-10T04:05:44;15.80;99.90
16643;DHT22;8435;52.184;5.406;2023-05-10T04:08:11;15.80;99.90
16643;DHT22;8435;52.184;5.406;2023-05-10T04:10:38;15.80;99.90
16643;DHT22;8435;52.184;5.406;2023-05-10T04:13:06;15.80;99.90
16643;DHT22;8435;52.184;5.406;2023-05-10T04:15:35;15.80;99.90
16643;DHT22;8435;52.184;5.406;2023-05-10T04:18:02;15.80;99.90
16643;DHT22;8435;52.184;5.406;2023-05-10T04:20:29;15.80;99.90
16643;DHT22;8435;52.184;5.406;2023-05-10T04:22:55;15.80;99.90
16643;DHT22;8435;52.184;5.406;2023-05-10T04:25:22;15.80;99.90
16643;DHT22;8435;52.184;5.406;2023-05-10T04:27:49;15.80;99.90
16643;DHT22;8435;52.184;5.406;2023-05-10T04:30:17;15.80;99.90
16643;DHT22;8435;52.184;5.406;2023-05-10T04:32:44;15.80;99.90
16643;DHT22;8435;52.184;5.406;2023-05-10T04:35:13;15.80;99.90
16643;DHT22;8435;52.184;5.406;2023-05-10T04:37:41;15.80;99.90
16643;DHT22;8435;52.184;5.406;2023-05-10T04:40:09;15.80;99.90
16643;DHT22;8435;52.184;5.406;2023-05-10T04:42:39;15.80;99.90
16643;DHT22;8435;52.184;5.406;2023-05-10T04:45:07;15.80;99.90
16643;DHT22;8435;52.184;5.406;2023-05-10T04:47:36;15.80;99.90
16643;DHT22;8435;52.184;5.406;2023-05-10T04:50:03;15.80;99.90
16643;DHT22;8435;52.184;5.406;2023-05-10T04:52:33;15.80;99.90
16643;DHT22;8435;52.184;5.406;2023-05-10T04:55:00;15.80;99.90
16643;DHT22;8435;52.184;5.406;2023-05-10T04:57:27;15.80;99.90
16643;DHT22;8435;52.184;5.406;2023-05-10T04:59:53;15.80;99.90
16643;DHT22;8435;52.184;5.406;2023-05-10T05:02:20;15.80;99.90
16643;DHT22;8435;52.184;5.406;2023-05-10T05:04:50;15.80;99.90
16643;DHT22;8435;52.184;5.406;2023-05-10T05:07:18;15.80;99.90
16643;DHT22;8435;52.184;5.406;2023-05-10T05:09:45;15.90;99.90
16643;DHT22;8435;52.184;5.406;2023-05-10T05:12:14;15.80;99.90
16643;DHT22;8435;52.184;5.406;2023-05-10T05:14:40;15.80;99.90
16643;DHT22;8435;52.184;5.406;2023-05-10T05:17:10;15.80;99.90
16643;DHT22;8435;52.184;5.406;2023-05-10T05:19:36;15.90;99.90
16643;DHT22;8435;52.184;5.406;2023-05-10T05:22:06;15.80;99.90
16643;DHT22;8435;52.184;5.406;2023-05-10T05:24:35;15.90;99.90
16643;DHT22;8435;52.184;5.406;2023-05-10T05:27:06;15.90;99.90
16643;DHT22;8435;52.184;5.406;2023-05-10T05:29:32;15.90;99.90
16643;DHT22;8435;52.184;5.406;2023-05-10T05:31:59;15.90;99.90
16643;DHT22;8435;52.184;5.406;2023-05-10T05:34:26;15.90;99.90
16643;DHT22;8435;52.184;5.406;2023-05-10T05:36:56;15.90;99.90
16643;DHT22;8435;52.184;5.406;2023-05-10T05:39:24;16.00;99.90
16643;DHT22;8435;52.184;5.406;2023-05-10T05:41:51;16.00;99.90
16643;DHT22;8435;52.184;5.406;2023-05-10T05:44:18;16.00;99.90
16643;DHT22;8435;52.184;5.406;2023-05-10T05:46:44;16.00;99.90
16643;DHT22;8435;52.184;5.406;2023-05-10T05:49:11;16.00;99.90
16643;DHT22;8435;52.184;5.406;2023-05-10T05:51:38;16.00;99.90
16643;DHT22;8435;52.184;5.406;2023-05-10T05:54:04;16.00;99.90
16643;DHT22;8435;52.184;5.406;2023-05-10T05:56:33;16.00;99.90
16643;DHT22;8435;52.184;5.406;2023-05-10T05:58:59;16.00;99.90
16643;DHT22;8435;52.184;5.406;2023-05-10T06:01:26;16.00;99.90
16643;DHT22;8435;52.184;5.406;2023-05-10T06:03:53;16.00;99.90
16643;DHT22;8435;52.184;5.406;2023-05-10T06:06:20;16.00;99.90
16643;DHT22;8435;52.184;5.406;2023-05-10T06:08:46;15.90;99.90
16643;DHT22;8435;52.184;5.406;2023-05-10T06:11:13;15.90;99.90
16643;DHT22;8435;52.184;5.406;2023-05-10T06:13:42;16.00;99.90
16643;DHT22;8435;52.184;5.406;2023-05-10T06:16:08;16.00;99.90
16643;DHT22;8435;52.184;5.406;2023-05-10T06:18:37;15.90;99.90
16643;DHT22;8435;52.184;5.406;2023-05-10T06:21:06;15.90;99.90
16643;DHT22;8435;52.184;5.406;2023-05-10T06:23:33;15.90;99.90
16643;DHT22;8435;52.184;5.406;2023-05-10T06:25:59;15.90;99.90
16643;DHT22;8435;52.184;5.406;2023-05-10T06:28:26;15.90;99.90
16643;DHT22;8435;52.184;5.406;2023-05-10T06:30:54;15.90;99.90
16643;DHT22;8435;52.184;5.406;2023-05-10T06:33:21;15.90;99.90
16643;DHT22;8435;52.184;5.406;2023-05-10T06:35:48;15.90;99.90
16643;DHT22;8435;52.184;5.406;2023-05-10T06:38:15;15.90;99.90
16643;DHT22;8435;52.184;5.406;2023-05-10T06:40:51;16.00;99.90
16643;DHT22;8435;52.184;5.406;2023-05-10T06:43:17;16.00;99.90
16643;DHT22;8435;52.184;5.406;2023-05-10T06:45:44;16.00;99.90
16643;DHT22;8435;52.184;5.406;2023-05-10T06:48:12;16.10;99.90
16643;DHT22;8435;52.184;5.406;2023-05-10T06:50:39;16.10;99.90
16643;DHT22;8435;52.184;5.406;2023-05-10T06:53:06;16.20;99.90
16643;DHT22;8435;52.184;5.406;2023-05-10T06:55:33;16.20;99.90
16643;DHT22;8435;52.184;5.406;2023-05-10T06:57:59;16.20;99.90
16643;DHT22;8435;52.184;5.406;2023-05-10T07:00:27;16.20;99.90
16643;DHT22;8435;52.184;5.406;2023-05-10T07:02:54;16.20;99.90
16643;DHT22;8435;52.184;5.406;2023-05-10T07:05:23;16.20;99.90
16643;DHT22;8435;52.184;5.406;2023-05-10T07:07:49;16.30;99.90
16643;DHT22;8435;52.184;5.406;2023-05-10T07:10:17;16.30;99.90
16643;DHT22;8435;52.184;5.406;2023-05-10T07:12:43;16.30;99.90
16643;DHT22;8435;52.184;5.406;2023-05-10T07:15:10;16.30;99.90
16643;DHT22;8435;52.184;5.406;2023-05-10T07:17:40;16.30;99.90
16643;DHT22;8435;52.184;5.406;2023-05-10T07:20:13;16.30;99.90
16643;DHT22;8435;52.184;5.406;2023-05-10T07:22:41;16.40;99.90
16643;DHT22;8435;52.184;5.406;2023-05-10T07:25:09;16.40;99.90
16643;DHT22;8435;52.184;5.406;2023-05-10T07:27:39;16.40;99.90
16643;DHT22;8435;52.184;5.406;2023-05-10T07:30:07;16.40;99.90
16643;DHT22;8435;52.184;5.406;2023-05-10T07:32:34;16.40;99.90
16643;DHT22;8435;52.184;5.406;2023-05-10T07:35:01;16.50;99.90
16643;DHT22;8435;52.184;5.406;2023-05-10T07:37:27;16.50;99.90
16643;DHT22;8435;52.184;5.406;2023-05-10T07:39:56;16.50;99.90
16643;DHT22;8435;52.184;5.406;2023-05-10T07:42:24;16.50;99.90
16643;DHT22;8435;52.184;5.406;2023-05-10T07:44:54;16.60;99.90
16643;DHT22;8435;52.184;5.406;2023-05-10T07:47:21;16.60;99.90
16643;DHT22;8435;52.184;5.406;2023-05-10T07:49:48;16.60;99.90
16643;DHT22;8435;52.184;5.406;2023-05-10T07:52:16;16.70;99.90
16643;DHT22;8435;52.184;5.406;2023-05-10T07:54:43;16.70;99.90
16643;DHT22;8435;52.184;5.406;2023-05-10T07:57:11;16.70;99.90
16643;DHT22;8435;52.184;5.406;2023-05-10T07:59:40;16.80;99.90
16643;DHT22;8435;52.184;5.406;2023-05-10T08:02:06;16.80;99.90
16643;DHT22;8435;52.184;5.406;2023-05-10T08:04:33;16.80;99.90
16643;DHT22;8435;52.184;5.406;2023-05-10T08:07:00;16.80;99.90
16643;DHT22;8435;52.184;5.406;2023-05-10T08:09:27;16.80;99.90
16643;DHT22;8435;52.184;5.406;2023-05-10T08:11:53;16.80;99.90
16643;DHT22;8435;52.184;5.406;2023-05-10T08:14:23;16.90;99.90
16643;DHT22;8435;52.184;5.406;2023-05-10T08:16:49;16.90;99.90
16643;DHT22;8435;52.184;5.406;2023-05-10T08:19:17;16.80;99.90
16643;DHT22;8435;52.184;5.406;2023-05-10T08:21:44;16.80;99.90
16643;DHT22;8435;52.184;5.406;2023-05-10T08:24:11;16.80;99.90
16643;DHT22;8435;52.184;5.406;2023-05-10T08:26:38;16.80;99.90
16643;DHT22;8435;52.184;5.406;2023-05-10T08:29:05;16.80;99.90
16643;DHT22;8435;52.184;5.406;2023-05-10T08:31:33;16.80;99.90
16643;DHT22;8435;52.184;5.406;2023-05-10T08:34:00;16.80;99.90
16643;DHT22;8435;52.184;5.406;2023-05-10T08:36:27;16.80;99.90
16643;DHT22;8435;52.184;5.406;2023-05-10T08:38:54;16.80;99.90
16643;DHT22;8435;52.184;5.406;2023-05-10T08:41:24;16.80;99.90
16643;DHT22;8435;52.184;5.406;2023-05-10T08:43:52;16.80;99.90
16643;DHT22;8435;52.184;5.406;2023-05-10T08:46:22;16.80;99.90
16643;DHT22;8435;52.184;5.406;2023-05-10T08:48:51;16.80;99.90
16643;DHT22;8435;52.184;5.406;2023-05-10T08:51:19;16.80;99.90
16643;DHT22;8435;52.184;5.406;2023-05-10T08:53:47;16.70;99.90
16643;DHT22;8435;52.184;5.406;2023-05-10T08:56:15;16.80;99.90
16643;DHT22;8435;52.184;5.406;2023-05-10T08:58:43;16.80;99.90
16643;DHT22;8435;52.184;5.406;2023-05-10T09:01:10;16.90;99.90
16643;DHT22;8435;52.184;5.406;2023-05-10T09:03:38;16.90;99.90
16643;DHT22;8435;52.184;5.406;2023-05-10T09:06:07;17.00;99.90
16643;DHT22;8435;52.184;5.406;2023-05-10T09:08:33;17.10;99.90
16643;DHT22;8435;52.184;5.406;2023-05-10T09:11:01;17.20;99.90
16643;DHT22;8435;52.184;5.406;2023-05-10T09:13:28;17.30;99.90
16643;DHT22;8435;52.184;5.406;2023-05-10T09:15:55;17.40;99.90
16643;DHT22;8435;52.184;5.406;2023-05-10T09:18:22;17.50;99.90
16643;DHT22;8435;52.184;5.406;2023-05-10T09:20:49;17.70;99.90
16643;DHT22;8435;52.184;5.406;2023-05-10T09:23:17;17.70;99.90
16643;DHT22;8435;52.184;5.406;2023-05-10T09:25:44;17.80;99.90
16643;DHT22;8435;52.184;5.406;2023-05-10T09:28:11;18.00;99.90
16643;DHT22;8435;52.184;5.406;2023-05-10T09:30:38;18.10;99.90
16643;DHT22;8435;52.184;5.406;2023-05-10T09:33:05;18.30;99.90
16643;DHT22;8435;52.184;5.406;2023-05-10T09:35:33;18.50;99.90
16643;DHT22;8435;52.184;5.406;2023-05-10T09:38:02;18.60;99.90
16643;DHT22;8435;52.184;5.406;2023-05-10T09:40:31;18.80;99.90
16643;DHT22;8435;52.184;5.406;2023-05-10T09:43:02;19.00;99.90
16643;DHT22;8435;52.184;5.406;2023-05-10T09:45:32;19.10;99.90
16643;DHT22;8435;52.184;5.406;2023-05-10T09:48:00;19.30;99.90
16643;DHT22;8435;52.184;5.406;2023-05-10T09:50:28;19.40;99.90
16643;DHT22;8435;52.184;5.406;2023-05-10T09:52:57;19.50;99.90
16643;DHT22;8435;52.184;5.406;2023-05-10T09:55:26;19.60;99.90
16643;DHT22;8435;52.184;5.406;2023-05-10T09:58:00;19.70;99.90
16643;DHT22;8435;52.184;5.406;2023-05-10T10:00:27;19.70;99.90
16643;DHT22;8435;52.184;5.406;2023-05-10T10:02:55;19.80;99.90
16643;DHT22;8435;52.184;5.406;2023-05-10T10:05:29;19.80;99.90
16643;DHT22;8435;52.184;5.406;2023-05-10T10:07:57;19.80;99.90
16643;DHT22;8435;52.184;5.406;2023-05-10T10:10:24;19.80;99.90
16643;DHT22;8435;52.184;5.406;2023-05-10T10:12:51;19.80;99.90
16643;DHT22;8435;52.184;5.406;2023-05-10T10:15:20;19.70;99.90
16643;DHT22;8435;52.184;5.406;2023-05-10T10:17:48;19.70;99.90
16643;DHT22;8435;52.184;5.406;2023-05-10T10:20:16;19.70;99.90
16643;DHT22;8435;52.184;5.406;2023-05-10T10:22:43;19.70;99.90
16643;DHT22;8435;52.184;5.406;2023-05-10T10:25:11;19.80;99.90
16643;DHT22;8435;52.184;5.406;2023-05-10T10:27:45;19.80;99.90
16643;DHT22;8435;52.184;5.406;2023-05-10T10:30:23;19.90;99.90
16643;DHT22;8435;52.184;5.406;2023-05-10T10:33:13;20.00;99.90
16643;DHT22;8435;52.184;5.406;2023-05-10T10:35:48;20.10;99.90
16643;DHT22;8435;52.184;5.406;2023-05-10T10:38:16;20.10;99.90
16643;DHT22;8435;52.184;5.406;2023-05-10T10:40:43;20.20;99.90
16643;DHT22;8435;52.184;5.406;2023-05-10T10:43:22;20.20;99.90
16643;DHT22;8435;52.184;5.406;2023-05-10T10:46:09;20.10;99.50
16643;DHT22;8435;52.184;5.406;2023-05-10T10:48:40;20.10;99.80
16643;DHT22;8435;52.184;5.406;2023-05-10T10:51:07;20.10;99.90
16643;DHT22;8435;52.184;5.406;2023-05-10T10:53:37;20.00;99.90
16643;DHT22;8435;52.184;5.406;2023-05-10T10:56:08;20.00;99.90
16643;DHT22;8435;52.184;5.406;2023-05-10T10:58:36;20.10;99.90
16643;DHT22;8435;52.184;5.406;2023-05-10T11:01:13;20.10;99.90
16643;DHT22;8435;52.184;5.406;2023-05-10T11:03:41;20.10;99.90
16643;DHT22;8435;52.184;5.406;2023-05-10T11:06:08;20.00;99.90
16643;DHT22;8435;52.184;5.406;2023-05-10T11:08:41;20.10;99.90
16643;DHT22;8435;52.184;5.406;2023-05-10T11:11:09;20.10;99.50
16643;DHT22;8435;52.184;5.406;2023-05-10T11:13:41;20.20;99.90
16643;DHT22;8435;52.184;5.406;2023-05-10T11:16:17;20.20;99.70
16643;DHT22;8435;52.184;5.406;2023-05-10T11:18:57;20.20;99.70
16643;DHT22;8435;52.184;5.406;2023-05-10T11:21:31;20.30;99.70
16643;DHT22;8435;52.184;5.406;2023-05-10T11:23:58;20.30;99.90
16643;DHT22;8435;52.184;5.406;2023-05-10T11:26:32;20.40;99.90
16643;DHT22;8435;52.184;5.406;2023-05-10T11:29:00;20.40;99.50
16643;DHT22;8435;52.184;5.406;2023-05-10T11:31:29;20.50;99.80
16643;DHT22;8435;52.184;5.406;2023-05-10T11:33:56;20.50;99.60
16643;DHT22;8435;52.184;5.406;2023-05-10T11:36:25;20.50;99.50
16643;DHT22;8435;52.184;5.406;2023-05-10T11:38:53;20.50;99.40
16643;DHT22;8435;52.184;5.406;2023-05-10T11:41:21;20.50;99.30
16643;DHT22;8435;52.184;5.406;2023-05-10T11:43:49;20.50;99.30
16643;DHT22;8435;52.184;5.406;2023-05-10T11:46:19;20.50;99.20
16643;DHT22;8435;52.184;5.406;2023-05-10T11:48:49;20.50;99.60
16643;DHT22;8435;52.184;5.406;2023-05-10T11:51:19;20.60;99.60
16643;DHT22;8435;52.184;5.406;2023-05-10T11:53:46;20.60;99.70
16643;DHT22;8435;52.184;5.406;2023-05-10T11:56:13;20.70;99.70
16643;DHT22;8435;52.184;5.406;2023-05-10T11:58:43;20.70;99.40
16643;DHT22;8435;52.184;5.406;2023-05-10T12:01:12;20.80;99.40
16643;DHT22;8435;52.184;5.406;2023-05-10T12:03:40;20.80;98.90
16643;DHT22;8435;52.184;5.406;2023-05-10T12:06:08;20.70;98.90
16643;DHT22;8435;52.184;5.406;2023-05-10T12:08:35;20.70;99.00
16643;DHT22;8435;52.184;5.406;2023-05-10T12:11:06;20.70;98.90
16643;DHT22;8435;52.184;5.406;2023-05-10T12:13:37;20.70;98.80
16643;DHT22;8435;52.184;5.406;2023-05-10T12:16:13;20.60;98.70
16643;DHT22;8435;52.184;5.406;2023-05-10T12:18:40;20.60;98.40
16643;DHT22;8435;52.184;5.406;2023-05-10T12:21:09;20.60;98.80
16643;DHT22;8435;52.184;5.406;2023-05-10T12:23:38;20.60;98.80
16643;DHT22;8435;52.184;5.406;2023-05-10T12:26:05;20.60;98.70
16643;DHT22;8435;52.184;5.406;2023-05-10T12:28:33;20.60;98.90
16643;DHT22;8435;52.184;5.406;2023-05-10T12:31:01;20.60;98.70
16643;DHT22;8435;52.184;5.406;2023-05-10T12:33:35;20.60;98.80
16643;DHT22;8435;52.184;5.406;2023-05-10T12:36:05;20.60;98.40
16643;DHT22;8435;52.184;5.406;2023-05-10T12:38:35;20.70;98.50
16643;DHT22;8435;52.184;5.406;2023-05-10T12:41:04;20.70;98.30
16643;DHT22;8435;52.184;5.406;2023-05-10T12:43:32;20.80;98.30
16643;DHT22;8435;52.184;5.406;2023-05-10T12:46:04;20.80;98.40
16643;DHT22;8435;52.184;5.406;2023-05-10T12:48:31;20.90;98.20
16643;DHT22;8435;52.184;5.406;2023-05-10T12:50:59;21.00;98.40
16643;DHT22;8435;52.184;5.406;2023-05-10T12:53:26;21.10;98.10
16643;DHT22;8435;52.184;5.406;2023-05-10T12:55:56;21.20;98.00
16643;DHT22;8435;52.184;5.406;2023-05-10T12:58:23;21.30;97.80
16643;DHT22;8435;52.184;5.406;2023-05-10T13:00:50;21.30;98.10
16643;DHT22;8435;52.184;5.406;2023-05-10T13:03:18;21.40;98.20
16643;DHT22;8435;52.184;5.406;2023-05-10T13:05:45;21.50;98.00
16643;DHT22;8435;52.184;5.406;2023-05-10T13:08:26;21.50;97.90
16643;DHT22;8435;52.184;5.406;2023-05-10T13:10:56;21.60;97.20
16643;DHT22;8435;52.184;5.406;2023-05-10T13:13:23;21.70;97.40
16643;DHT22;8435;52.184;5.406;2023-05-10T13:15:49;21.70;96.90
16643;DHT22;8435;52.184;5.406;2023-05-10T13:18:16;21.70;97.20
16643;DHT22;8435;52.184;5.406;2023-05-10T13:20:43;21.70;97.00
16643;DHT22;8435;52.184;5.406;2023-05-10T13:23:10;21.70;96.80
16643;DHT22;8435;52.184;5.406;2023-05-10T13:25:37;21.70;96.60
16643;DHT22;8435;52.184;5.406;2023-05-10T13:28:05;21.70;96.40
16643;DHT22;8435;52.184;5.406;2023-05-10T13:30:32;21.60;96.40
16643;DHT22;8435;52.184;5.406;2023-05-10T13:32:59;21.50;96.50
16643;DHT22;8435;52.184;5.406;2023-05-10T13:35:26;21.40;96.60
16643;DHT22;8435;52.184;5.406;2023-05-10T13:37:52;21.30;96.50
16643;DHT22;8435;52.184;5.406;2023-05-10T13:40:22;21.20;96.50
16643;DHT22;8435;52.184;5.406;2023-05-10T13:42:49;21.00;96.40
16643;DHT22;8435;52.184;5.406;2023-05-10T13:45:17;20.90;96.50
16643;DHT22;8435;52.184;5.406;2023-05-10T13:47:44;20.60;96.60
16643;DHT22;8435;52.184;5.406;2023-05-10T13:50:10;20.50;97.20
16643;DHT22;8435;52.184;5.406;2023-05-10T13:52:37;20.30;97.20
16643;DHT22;8435;52.184;5.406;2023-05-10T13:55:04;20.20;97.40
16643;DHT22;8435;52.184;5.406;2023-05-10T13:57:31;20.00;97.50
16643;DHT22;8435;52.184;5.406;2023-05-10T13:59:59;19.90;97.80
16643;DHT22;8435;52.184;5.406;2023-05-10T14:02:28;19.70;98.00
16643;DHT22;8435;52.184;5.406;2023-05-10T14:04:54;19.60;98.00
16643;DHT22;8435;52.184;5.406;2023-05-10T14:07:23;19.40;98.20
16643;DHT22;8435;52.184;5.406;2023-05-10T14:09:50;19.40;98.30
16643;DHT22;8435;52.184;5.406;2023-05-10T14:12:17;19.30;98.60
16643;DHT22;8435;52.184;5.406;2023-05-10T14:14:43;19.20;98.60
16643;DHT22;8435;52.184;5.406;2023-05-10T14:17:10;19.10;98.70
16643;DHT22;8435;52.184;5.406;2023-05-10T14:19:38;19.00;98.80
16643;DHT22;8435;52.184;5.406;2023-05-10T14:22:05;19.00;98.90
16643;DHT22;8435;52.184;5.406;2023-05-10T14:24:32;18.90;99.20
16643;DHT22;8435;52.184;5.406;2023-05-10T14:26:58;18.90;99.20
16643;DHT22;8435;52.184;5.406;2023-05-10T14:29:25;18.80;99.40
16643;DHT22;8435;52.184;5.406;2023-05-10T14:31:52;18.80;99.60
16643;DHT22;8435;52.184;5.406;2023-05-10T14:34:19;18.70;99.70
16643;DHT22;8435;52.184;5.406;2023-05-10T14:36:47;18.60;99.70
16643;DHT22;8435;52.184;5.406;2023-05-10T14:39:16;18.60;99.90
16643;DHT22;8435;52.184;5.406;2023-05-10T14:41:43;18.60;99.90
16643;DHT22;8435;52.184;5.406;2023-05-10T14:44:13;18.60;99.90
16643;DHT22;8435;52.184;5.406;2023-05-10T14:46:40;18.50;99.90
16643;DHT22;8435;52.184;5.406;2023-05-10T14:49:08;18.50;99.90
16643;DHT22;8435;52.184;5.406;2023-05-10T14:51:34;18.50;99.90
16643;DHT22;8435;52.184;5.406;2023-05-10T14:54:03;18.40;99.90
16643;DHT22;8435;52.184;5.406;2023-05-10T14:56:32;18.40;99.90
16643;DHT22;8435;52.184;5.406;2023-05-10T14:59:04;18.40;99.90
16643;DHT22;8435;52.184;5.406;2023-05-10T15:01:31;18.40;99.90
16643;DHT22;8435;52.184;5.406;2023-05-10T15:03:58;18.40;99.90
16643;DHT22;8435;52.184;5.406;2023-05-10T15:06:30;18.40;99.90
16643;DHT22;8435;52.184;5.406;2023-05-10T15:08:59;18.40;99.90
16643;DHT22;8435;52.184;5.406;2023-05-10T15:11:27;18.40;99.90
16643;DHT22;8435;52.184;5.406;2023-05-10T15:13:54;18.40;99.90
16643;DHT22;8435;52.184;5.406;2023-05-10T15:16:21;18.40;99.90
16643;DHT22;8435;52.184;5.406;2023-05-10T15:18:48;18.40;99.90
16643;DHT22;8435;52.184;5.406;2023-05-10T15:21:16;18.40;99.90
16643;DHT22;8435;52.184;5.406;2023-05-10T15:23:43;18.40;99.90
16643;DHT22;8435;52.184;5.406;2023-05-10T15:26:10;18.40;99.90
16643;DHT22;8435;52.184;5.406;2023-05-10T15:28:39;18.40;99.90
16643;DHT22;8435;52.184;5.406;2023-05-10T15:31:06;18.40;99.90
16643;DHT22;8435;52.184;5.406;2023-05-10T15:33:36;18.50;99.90
16643;DHT22;8435;52.184;5.406;2023-05-10T15:36:03;18.50;99.90
16643;DHT22;8435;52.184;5.406;2023-05-10T15:38:30;18.60;99.90
16643;DHT22;8435;52.184;5.406;2023-05-10T15:40:58;18.60;99.90
16643;DHT22;8435;52.184;5.406;2023-05-10T15:43:25;18.70;99.90
16643;DHT22;8435;52.184;5.406;2023-05-10T15:45:55;18.80;99.90
16643;DHT22;8435;52.184;5.406;2023-05-10T15:48:24;18.90;99.90
16643;DHT22;8435;52.184;5.406;2023-05-10T15:50:51;19.00;99.90
16643;DHT22;8435;52.184;5.406;2023-05-10T15:53:18;19.00;99.90